sensor_id;sensor_type;location;lat;lon;timestamp;pressure;altitude;pressure_sealevel;temperature;humidity
60725;BME280;59881;36.722;-4.462;2023-04-15T00:00:08;101021.94;;;19.70;37.75
60725;BME280;59881;36.722;-4.462;2023-04-15T00:02:34;100922.84;;;19.09;37.38
60725;BME280;59881;36.722;-4.462;2023-04-15T00:05:01;101018.03;;;19.64;37.71
60725;BME280;59881;36.722;-4.462;2023-04-15T00:07:27;101014.38;;;19.65;37.58
60725;BME280;59881;36.722;-4.462;2023-04-15T00:09:54;100989.63;;;19.45;37.49
60725;BME280;59881;36.722;-4.462;2023-04-15T00:12:22;100998.47;;;19.46;37.88
60725;BME280;59881;36.722;-4.462;2023-04-15T00:14:48;100986.59;;;19.40;38.14
60725;BME280;59881;36.722;-4.462;2023-04-15T00:17:14;101007.28;;;19.56;37.98
60725;BME280;59881;36.722;-4.462;2023-04-15T00:19:39;101010.50;;;19.59;38.09
60725;BME280;59881;36.722;-4.462;2023-04-15T00:22:06;101012.28;;;19.59;38.21
60725;BME280;59881;36.722;-4.462;2023-04-15T00:24:32;100822.31;;;18.36;38.16
60725;BME280;59881;36.722;-4.462;2023-04-15T00:26:58;101017.41;;;19.52;38.40
60725;BME280;59881;36.722;-4.462;2023-04-15T00:29:24;100880.69;;;18.67;38.49
60725;BME280;59881;36.722;-4.462;2023-04-15T00:31:50;100947.94;;;19.16;38.78
60725;BME280;59881;36.722;-4.462;2023-04-15T00:34:16;100805.44;;;18.18;38.66
60725;BME280;59881;36.722;-4.462;2023-04-15T00:36:42;100880.22;;;18.72;38.40
60725;BME280;59881;36.722;-4.462;2023-04-15T00:39:08;101015.06;;;19.49;38.59
60725;BME280;59881;36.722;-4.462;2023-04-15T00:41:33;100986.81;;;19.29;38.97
60725;BME280;59881;36.722;-4.462;2023-04-15T00:44:00;100834.25;;;18.32;39.01
60725;BME280;59881;36.722;-4.462;2023-04-15T00:46:28;100931.75;;;18.82;39.15
60725;BME280;59881;36.722;-4.462;2023-04-15T00:48:55;100951.97;;;18.85;39.37
60725;BME280;59881;36.722;-4.462;2023-04-15T00:51:21;101015.44;;;19.36;39.29
60725;BME280;59881;36.722;-4.462;2023-04-15T00:53:47;101010.09;;;19.36;39.16
60725;BME280;59881;36.722;-4.462;2023-04-15T00:56:13;101023.75;;;19.33;39.03
60725;BME280;59881;36.722;-4.462;2023-04-15T00:58:38;100868.34;;;18.38;39.44
60725;BME280;59881;36.722;-4.462;2023-04-15T01:01:04;100753.22;;;17.60;39.79
60725;BME280;59881;36.722;-4.462;2023-04-15T01:03:30;100900.25;;;18.58;39.77
60725;BME280;59881;36.722;-4.462;2023-04-15T01:05:56;101003.31;;;19.24;39.96
60725;BME280;59881;36.722;-4.462;2023-04-15T01:08:27;100856.63;;;18.22;40.12
60725;BME280;59881;36.722;-4.462;2023-04-15T01:10:58;100922.22;;;18.70;40.29
60725;BME280;59881;36.722;-4.462;2023-04-15T01:13:25;100949.13;;;18.86;40.13
60725;BME280;59881;36.722;-4.462;2023-04-15T01:15:51;100976.41;;;19.08;40.42
60725;BME280;59881;36.722;-4.462;2023-04-15T01:18:18;100961.66;;;19.03;40.61
60725;BME280;59881;36.722;-4.462;2023-04-15T01:20:44;100840.03;;;18.28;40.77
60725;BME280;59881;36.722;-4.462;2023-04-15T01:23:10;100953.28;;;18.98;40.83
60725;BME280;59881;36.722;-4.462;2023-04-15T01:25:35;100875.44;;;18.48;41.08
60725;BME280;59881;36.722;-4.462;2023-04-15T01:28:01;100955.81;;;19.00;41.06
60725;BME280;59881;36.722;-4.462;2023-04-15T01:30:27;100952.44;;;18.98;41.24
60725;BME280;59881;36.722;-4.462;2023-04-15T01:32:53;100814.41;;;18.17;41.21
60725;BME280;59881;36.722;-4.462;2023-04-15T01:35:19;100949.81;;;18.88;41.28
60725;BME280;59881;36.722;-4.462;2023-04-15T01:37:45;100772.22;;;17.85;41.74
60725;BME280;59881;36.722;-4.462;2023-04-15T01:40:11;100734.72;;;17.58;41.72
60725;BME280;59881;36.722;-4.462;2023-04-15T01:42:38;100913.69;;;18.66;41.96
60725;BME280;59881;36.722;-4.462;2023-04-15T01:45:04;100828.56;;;18.17;42.12
60725;BME280;59881;36.722;-4.462;2023-04-15T01:47:30;100893.81;;;18.51;41.70
60725;BME280;59881;36.722;-4.462;2023-04-15T01:49:56;100790.41;;;17.79;42.02
60725;BME280;59881;36.722;-4.462;2023-04-15T01:52:21;100934.69;;;18.51;42.17
60725;BME280;59881;36.722;-4.462;2023-04-15T01:54:47;100827.84;;;17.97;42.45
60725;BME280;59881;36.722;-4.462;2023-04-15T01:57:13;100933.94;;;18.59;42.41
60725;BME280;59881;36.722;-4.462;2023-04-15T01:59:39;100896.19;;;18.26;42.70
60725;BME280;59881;36.722;-4.462;2023-04-15T02:02:05;100925.59;;;18.44;42.61
60725;BME280;59881;36.722;-4.462;2023-04-15T02:04:30;100789.97;;;17.56;42.75
60725;BME280;59881;36.722;-4.462;2023-04-15T02:06:56;100927.13;;;18.47;43.04
60725;BME280;59881;36.722;-4.462;2023-04-15T02:09:22;100941.34;;;18.37;42.83
60725;BME280;59881;36.722;-4.462;2023-04-15T02:11:47;100949.53;;;18.26;43.08
60725;BME280;59881;36.722;-4.462;2023-04-15T02:14:13;100837.03;;;17.66;43.37
60725;BME280;59881;36.722;-4.462;2023-04-15T02:16:39;100957.06;;;18.40;43.36
60725;BME280;59881;36.722;-4.462;2023-04-15T02:19:04;100908.91;;;18.05;43.48
60725;BME280;59881;36.722;-4.462;2023-04-15T02:21:30;100951.75;;;18.31;43.76
60725;BME280;59881;36.722;-4.462;2023-04-15T02:23:55;100950.81;;;18.22;43.87
60725;BME280;59881;36.722;-4.462;2023-04-15T02:26:21;100951.66;;;18.13;44.10
60725;BME280;59881;36.722;-4.462;2023-04-15T02:28:47;100900.66;;;17.88;43.89
60725;BME280;59881;36.722;-4.462;2023-04-15T02:31:15;100970.31;;;18.23;44.29
60725;BME280;59881;36.722;-4.462;2023-04-15T02:33:41;100847.31;;;17.51;43.98
60725;BME280;59881;36.722;-4.462;2023-04-15T02:36:07;100969.38;;;18.14;44.60
60725;BME280;59881;36.722;-4.462;2023-04-15T02:38:34;100959.28;;;18.08;44.44
60725;BME280;59881;36.722;-4.462;2023-04-15T02:40:59;100919.47;;;17.77;44.88
60725;BME280;59881;36.722;-4.462;2023-04-15T02:43:25;100748.88;;;16.73;45.06
60725;BME280;59881;36.722;-4.462;2023-04-15T02:45:50;100954.81;;;17.98;45.44
60725;BME280;59881;36.722;-4.462;2023-04-15T02:48:16;100823.38;;;17.22;45.89
60725;BME280;59881;36.722;-4.462;2023-04-15T02:50:44;100950.03;;;17.92;46.37
60725;BME280;59881;36.722;-4.462;2023-04-15T02:53:10;100947.69;;;17.89;46.81
60725;BME280;59881;36.722;-4.462;2023-04-15T02:55:37;100807.31;;;16.94;46.85
60725;BME280;59881;36.722;-4.462;2023-04-15T02:58:03;100933.34;;;17.71;47.12
60725;BME280;59881;36.722;-4.462;2023-04-15T03:00:28;100855.47;;;17.20;47.25
60725;BME280;59881;36.722;-4.462;2023-04-15T03:03:04;100916.69;;;17.59;47.40
60725;BME280;59881;36.722;-4.462;2023-04-15T03:05:30;100682.81;;;16.20;47.40
60725;BME280;59881;36.722;-4.462;2023-04-15T03:07:56;100904.34;;;17.68;47.92
60725;BME280;59881;36.722;-4.462;2023-04-15T03:10:21;100865.97;;;17.41;47.63
60725;BME280;59881;36.722;-4.462;2023-04-15T03:12:47;100713.34;;;16.54;47.94
60725;BME280;59881;36.722;-4.462;2023-04-15T03:15:13;100902.38;;;17.70;48.06
60725;BME280;59881;36.722;-4.462;2023-04-15T03:17:39;100901.53;;;17.69;48.04
60725;BME280;59881;36.722;-4.462;2023-04-15T03:20:05;100919.50;;;17.67;48.06
60725;BME280;59881;36.722;-4.462;2023-04-15T03:22:31;100900.16;;;17.65;48.34
60725;BME280;59881;36.722;-4.462;2023-04-15T03:24:57;100910.81;;;17.65;48.09
60725;BME280;59881;36.722;-4.462;2023-04-15T03:27:23;100904.63;;;17.65;48.25
60725;BME280;59881;36.722;-4.462;2023-04-15T03:29:49;100901.28;;;17.63;48.35
60725;BME280;59881;36.722;-4.462;2023-04-15T03:32:15;100784.75;;;16.98;48.44
60725;BME280;59881;36.722;-4.462;2023-04-15T03:34:41;100743.28;;;16.76;48.45
60725;BME280;59881;36.722;-4.462;2023-04-15T03:37:06;100892.28;;;17.64;48.53
60725;BME280;59881;36.722;-4.462;2023-04-15T03:39:33;100895.94;;;17.63;48.55
60725;BME280;59881;36.722;-4.462;2023-04-15T03:41:58;100716.97;;;16.44;48.63
60725;BME280;59881;36.722;-4.462;2023-04-15T03:44:25;100907.03;;;17.58;48.55
60725;BME280;59881;36.722;-4.462;2023-04-15T03:46:51;100767.63;;;16.71;48.65
60725;BME280;59881;36.722;-4.462;2023-04-15T03:49:16;100858.28;;;17.19;48.81
60725;BME280;59881;36.722;-4.462;2023-04-15T03:51:43;100809.13;;;16.84;48.69
60725;BME280;59881;36.722;-4.462;2023-04-15T03:54:09;100915.00;;;17.48;48.72
60725;BME280;59881;36.722;-4.462;2023-04-15T03:56:35;100857.03;;;17.03;48.40
60725;BME280;59881;36.722;-4.462;2023-04-15T03:59:01;100895.97;;;17.24;48.85
60725;BME280;59881;36.722;-4.462;2023-04-15T04:01:26;100857.28;;;17.00;49.17
60725;BME280;59881;36.722;-4.462;2023-04-15T04:03:52;100911.38;;;17.30;49.13
60725;BME280;59881;36.722;-4.462;2023-04-15T04:06:17;100800.69;;;16.59;49.06
60725;BME280;59881;36.722;-4.462;2023-04-15T04:08:43;100781.31;;;16.38;49.53
60725;BME280;59881;36.722;-4.462;2023-04-15T04:11:08;100825.44;;;16.50;49.45
60725;BME280;59881;36.722;-4.462;2023-04-15T04:13:34;100909.97;;;17.06;49.69
60725;BME280;59881;36.722;-4.462;2023-04-15T04:15:59;100876.31;;;16.76;49.86
60725;BME280;59881;36.722;-4.462;2023-04-15T04:18:25;100787.88;;;16.33;50.13
60725;BME280;59881;36.722;-4.462;2023-04-15T04:20:50;100716.63;;;15.67;50.26
60725;BME280;59881;36.722;-4.462;2023-04-15T04:23:16;100533.09;;;14.60;50.23
60725;BME280;59881;36.722;-4.462;2023-04-15T04:25:41;100909.09;;;16.86;50.35
60725;BME280;59881;36.722;-4.462;2023-04-15T04:28:07;100726.63;;;15.75;50.50
60725;BME280;59881;36.722;-4.462;2023-04-15T04:30:34;100895.38;;;16.81;50.90
60725;BME280;59881;36.722;-4.462;2023-04-15T04:33:00;100779.53;;;15.98;50.91
60725;BME280;59881;36.722;-4.462;2023-04-15T04:35:25;100902.53;;;16.81;51.23
60725;BME280;59881;36.722;-4.462;2023-04-15T04:37:51;100728.25;;;15.66;51.15
60725;BME280;59881;36.722;-4.462;2023-04-15T04:40:18;100713.16;;;15.36;51.24
60725;BME280;59881;36.722;-4.462;2023-04-15T04:42:43;100518.19;;;14.17;51.02
60725;BME280;59881;36.722;-4.462;2023-04-15T04:45:09;100886.84;;;16.47;51.05
60725;BME280;59881;36.722;-4.462;2023-04-15T04:47:35;100755.84;;;15.54;51.36
60725;BME280;59881;36.722;-4.462;2023-04-15T04:50:01;100743.28;;;15.56;51.42
60725;BME280;59881;36.722;-4.462;2023-04-15T04:52:26;100831.03;;;15.97;51.28
60725;BME280;59881;36.722;-4.462;2023-04-15T04:54:52;100924.13;;;16.57;51.11
60725;BME280;59881;36.722;-4.462;2023-04-15T04:57:17;100939.63;;;16.51;51.50
60725;BME280;59881;36.722;-4.462;2023-04-15T04:59:42;100955.88;;;16.48;51.57
60725;BME280;59881;36.722;-4.462;2023-04-15T05:02:08;100786.53;;;15.68;51.72
60725;BME280;59881;36.722;-4.462;2023-04-15T05:04:33;100940.75;;;16.49;51.77
60725;BME280;59881;36.722;-4.462;2023-04-15T05:06:59;100752.19;;;15.45;51.56
60725;BME280;59881;36.722;-4.462;2023-04-15T05:09:25;100843.84;;;15.91;51.85
60725;BME280;59881;36.722;-4.462;2023-04-15T05:11:50;100707.19;;;15.13;51.69
60725;BME280;59881;36.722;-4.462;2023-04-15T05:14:16;100773.56;;;15.44;51.89
60725;BME280;59881;36.722;-4.462;2023-04-15T05:16:41;100808.91;;;15.65;51.86
60725;BME280;59881;36.722;-4.462;2023-04-15T05:19:07;100889.63;;;16.05;51.84
60725;BME280;59881;36.722;-4.462;2023-04-15T05:21:32;100928.19;;;16.20;52.25
60725;BME280;59881;36.722;-4.462;2023-04-15T05:23:58;100825.03;;;15.52;52.28
60725;BME280;59881;36.722;-4.462;2023-04-15T05:26:23;100968.34;;;16.27;51.97
60725;BME280;59881;36.722;-4.462;2023-04-15T05:28:49;100847.06;;;15.43;52.09
60725;BME280;59881;36.722;-4.462;2023-04-15T05:31:15;100940.19;;;16.14;52.35
60725;BME280;59881;36.722;-4.462;2023-04-15T05:33:41;100839.34;;;15.40;51.89
60725;BME280;59881;36.722;-4.462;2023-04-15T05:36:07;100946.94;;;16.19;51.88
60725;BME280;59881;36.722;-4.462;2023-04-15T05:38:32;100757.22;;;14.97;52.02
60725;BME280;59881;36.722;-4.462;2023-04-15T05:40:58;100732.38;;;14.77;51.95
60725;BME280;59881;36.722;-4.462;2023-04-15T05:43:24;100972.97;;;16.25;52.60
60725;BME280;59881;36.722;-4.462;2023-04-15T05:45:50;100893.69;;;15.78;52.72
60725;BME280;59881;36.722;-4.462;2023-04-15T05:48:15;100679.66;;;14.51;52.91
60725;BME280;59881;36.722;-4.462;2023-04-15T05:50:41;100849.13;;;15.40;52.99
60725;BME280;59881;36.722;-4.462;2023-04-15T05:53:07;100842.31;;;15.47;53.08
60725;BME280;59881;36.722;-4.462;2023-04-15T05:55:33;100853.53;;;15.50;52.98
60725;BME280;59881;36.722;-4.462;2023-04-15T05:57:59;100994.09;;;16.47;53.00
60725;BME280;59881;36.722;-4.462;2023-04-15T06:00:24;100964.78;;;16.38;52.93
60725;BME280;59881;36.722;-4.462;2023-04-15T06:02:50;100865.47;;;15.77;52.59
60725;BME280;59881;36.722;-4.462;2023-04-15T06:05:16;100965.72;;;16.98;52.61
60725;BME280;59881;36.722;-4.462;2023-04-15T06:07:42;100925.09;;;17.84;50.39
60725;BME280;59881;36.722;-4.462;2023-04-15T06:10:09;101000.78;;;19.58;47.43
60725;BME280;59881;36.722;-4.462;2023-04-15T06:12:34;100986.03;;;20.69;45.12
60725;BME280;59881;36.722;-4.462;2023-04-15T06:15:00;100976.84;;;21.30;42.72
60725;BME280;59881;36.722;-4.462;2023-04-15T06:17:26;101009.34;;;22.17;41.25
60725;BME280;59881;36.722;-4.462;2023-04-15T06:19:52;100925.97;;;22.43;39.64
60725;BME280;59881;36.722;-4.462;2023-04-15T06:22:23;100997.66;;;23.60;38.04
60725;BME280;59881;36.722;-4.462;2023-04-15T06:24:49;101006.84;;;24.11;37.07
60725;BME280;59881;36.722;-4.462;2023-04-15T06:27:16;100912.06;;;24.01;35.95
60725;BME280;59881;36.722;-4.462;2023-04-15T06:29:41;100977.22;;;24.86;35.56
60725;BME280;59881;36.722;-4.462;2023-04-15T06:32:07;100973.28;;;25.39;34.34
60725;BME280;59881;36.722;-4.462;2023-04-15T06:34:33;100749.28;;;24.48;33.12
60725;BME280;59881;36.722;-4.462;2023-04-15T06:36:58;100986.56;;;26.47;32.23
60725;BME280;59881;36.722;-4.462;2023-04-15T06:39:25;101032.59;;;27.02;31.93
60725;BME280;59881;36.722;-4.462;2023-04-15T06:41:51;101015.06;;;27.59;30.82
60725;BME280;59881;36.722;-4.462;2023-04-15T06:44:17;100911.81;;;27.42;30.45
60725;BME280;59881;36.722;-4.462;2023-04-15T06:46:43;100886.44;;;27.43;29.96
60725;BME280;59881;36.722;-4.462;2023-04-15T06:49:09;101028.63;;;28.26;29.63
60725;BME280;59881;36.722;-4.462;2023-04-15T06:51:35;100925.34;;;27.96;29.16
60725;BME280;59881;36.722;-4.462;2023-04-15T06:54:02;101016.91;;;29.04;28.75
60725;BME280;59881;36.722;-4.462;2023-04-15T06:56:31;100939.16;;;28.91;27.99
60725;BME280;59881;36.722;-4.462;2023-04-15T06:58:56;101016.59;;;29.32;28.28
60725;BME280;59881;36.722;-4.462;2023-04-15T07:01:22;101031.59;;;29.98;27.71
60725;BME280;59881;36.722;-4.462;2023-04-15T07:03:47;100647.78;;;27.86;27.01
60725;BME280;59881;36.722;-4.462;2023-04-15T07:06:13;100829.84;;;29.22;26.55
60725;BME280;59881;36.722;-4.462;2023-04-15T07:08:39;100971.88;;;30.72;26.27
60725;BME280;59881;36.722;-4.462;2023-04-15T07:11:04;100969.59;;;31.18;25.26
60725;BME280;59881;36.722;-4.462;2023-04-15T07:13:31;101006.06;;;31.70;25.01
60725;BME280;59881;36.722;-4.462;2023-04-15T07:15:57;101023.31;;;32.06;24.54
60725;BME280;59881;36.722;-4.462;2023-04-15T07:18:22;100933.31;;;32.42;23.71
60725;BME280;59881;36.722;-4.462;2023-04-15T07:20:48;101012.69;;;33.55;23.02
60725;BME280;59881;36.722;-4.462;2023-04-15T07:23:14;100981.78;;;33.83;22.67
60725;BME280;59881;36.722;-4.462;2023-04-15T07:25:40;100948.28;;;33.93;22.16
60725;BME280;59881;36.722;-4.462;2023-04-15T07:28:06;101003.16;;;34.25;21.99
60725;BME280;59881;36.722;-4.462;2023-04-15T07:30:31;101033.38;;;34.74;21.37
60725;BME280;59881;36.722;-4.462;2023-04-15T07:32:57;101031.28;;;35.09;21.04
60725;BME280;59881;36.722;-4.462;2023-04-15T07:35:23;101024.09;;;35.24;20.47
60725;BME280;59881;36.722;-4.462;2023-04-15T07:37:50;101045.16;;;34.75;20.98
60725;BME280;59881;36.722;-4.462;2023-04-15T07:40:16;101032.16;;;34.26;21.57
60725;BME280;59881;36.722;-4.462;2023-04-15T07:42:42;101032.94;;;33.71;22.11
60725;BME280;59881;36.722;-4.462;2023-04-15T07:45:08;101036.19;;;33.56;22.33
60725;BME280;59881;36.722;-4.462;2023-04-15T07:47:34;100989.97;;;33.21;22.25
60725;BME280;59881;36.722;-4.462;2023-04-15T07:50:00;101019.50;;;33.69;22.22
60725;BME280;59881;36.722;-4.462;2023-04-15T07:52:26;101078.41;;;34.11;21.84
60725;BME280;59881;36.722;-4.462;2023-04-15T07:54:52;100849.63;;;32.88;21.94
60725;BME280;59881;36.722;-4.462;2023-04-15T07:57:18;101053.13;;;34.20;21.70
60725;BME280;59881;36.722;-4.462;2023-04-15T07:59:44;101032.59;;;34.57;21.38
60725;BME280;59881;36.722;-4.462;2023-04-15T08:02:10;101049.59;;;34.81;21.04
60725;BME280;59881;36.722;-4.462;2023-04-15T08:04:35;100998.88;;;34.73;21.00
60725;BME280;59881;36.722;-4.462;2023-04-15T08:07:02;101039.25;;;35.32;20.77
60725;BME280;59881;36.722;-4.462;2023-04-15T08:09:28;100871.75;;;35.13;20.20
60725;BME280;59881;36.722;-4.462;2023-04-15T08:11:53;101009.72;;;36.57;19.28
60725;BME280;59881;36.722;-4.462;2023-04-15T08:14:19;101010.38;;;36.79;19.38
60725;BME280;59881;36.722;-4.462;2023-04-15T08:16:45;101007.88;;;36.73;18.75
60725;BME280;59881;36.722;-4.462;2023-04-15T08:19:10;100996.03;;;36.62;18.60
60725;BME280;59881;36.722;-4.462;2023-04-15T08:21:36;101025.91;;;36.58;18.87
60725;BME280;59881;36.722;-4.462;2023-04-15T08:24:01;101062.75;;;36.67;19.16
60725;BME280;59881;36.722;-4.462;2023-04-15T08:26:27;101048.09;;;37.10;19.21
60725;BME280;59881;36.722;-4.462;2023-04-15T08:28:53;101049.28;;;37.65;18.29
60725;BME280;59881;36.722;-4.462;2023-04-15T08:31:18;101019.31;;;37.38;18.36
60725;BME280;59881;36.722;-4.462;2023-04-15T08:33:44;100950.06;;;37.41;17.90
60725;BME280;59881;36.722;-4.462;2023-04-15T08:36:10;101039.91;;;38.22;17.73
60725;BME280;59881;36.722;-4.462;2023-04-15T08:38:36;101041.38;;;38.75;17.28
60725;BME280;59881;36.722;-4.462;2023-04-15T08:41:19;101045.28;;;39.18;16.96
60725;BME280;59881;36.722;-4.462;2023-04-15T08:43:53;101056.78;;;39.70;16.71
60725;BME280;59881;36.722;-4.462;2023-04-15T08:46:21;100942.97;;;39.30;16.60
60725;BME280;59881;36.722;-4.462;2023-04-15T08:48:47;101062.09;;;39.61;16.58
60725;BME280;59881;36.722;-4.462;2023-04-15T08:51:13;101057.41;;;39.57;16.66
60725;BME280;59881;36.722;-4.462;2023-04-15T08:53:42;100950.94;;;38.92;16.47
60725;BME280;59881;36.722;-4.462;2023-04-15T08:56:08;101057.66;;;40.24;15.88
60725;BME280;59881;36.722;-4.462;2023-04-15T08:58:35;101065.53;;;40.60;15.43
60725;BME280;59881;36.722;-4.462;2023-04-15T09:01:00;100992.59;;;40.18;15.24
60725;BME280;59881;36.722;-4.462;2023-04-15T09:03:26;101005.53;;;40.46;15.29
60725;BME280;59881;36.722;-4.462;2023-04-15T09:05:53;101064.56;;;40.93;15.11
60725;BME280;59881;36.722;-4.462;2023-04-15T09:08:19;101026.84;;;41.03;14.73
60725;BME280;59881;36.722;-4.462;2023-04-15T09:10:44;101000.59;;;41.05;14.79
60725;BME280;59881;36.722;-4.462;2023-04-15T09:13:10;101061.44;;;41.57;14.83
60725;BME280;59881;36.722;-4.462;2023-04-15T09:15:37;101054.75;;;41.91;14.53
60725;BME280;59881;36.722;-4.462;2023-04-15T09:18:03;101053.94;;;42.65;13.79
60725;BME280;59881;36.722;-4.462;2023-04-15T09:20:29;101058.50;;;42.97;13.78
60725;BME280;59881;36.722;-4.462;2023-04-15T09:22:54;101058.78;;;42.95;13.49
60725;BME280;59881;36.722;-4.462;2023-04-15T09:30:15;101004.03;;;43.37;13.01
60725;BME280;59881;36.722;-4.462;2023-04-15T09:32:58;101062.00;;;44.24;12.93
60725;BME280;59881;36.722;-4.462;2023-04-15T09:35:25;101053.50;;;44.78;12.20
60725;BME280;59881;36.722;-4.462;2023-04-15T09:38:05;101048.75;;;44.78;12.40
60725;BME280;59881;36.722;-4.462;2023-04-15T09:40:41;101028.47;;;44.69;12.30
60725;BME280;59881;36.722;-4.462;2023-04-15T09:43:08;101047.34;;;45.25;11.86
60725;BME280;59881;36.722;-4.462;2023-04-15T09:45:35;101030.81;;;45.19;11.94
60725;BME280;59881;36.722;-4.462;2023-04-15T09:50:43;100970.13;;;45.30;11.81
60725;BME280;59881;36.722;-4.462;2023-04-15T09:53:09;101056.69;;;46.40;11.56
60725;BME280;59881;36.722;-4.462;2023-04-15T09:55:38;101050.28;;;47.12;10.75
60725;BME280;59881;36.722;-4.462;2023-04-15T10:00:49;101025.38;;;47.15;10.83
60725;BME280;59881;36.722;-4.462;2023-04-15T10:03:22;101033.47;;;47.87;10.33
60725;BME280;59881;36.722;-4.462;2023-04-15T10:05:50;101040.50;;;48.05;10.44
60725;BME280;59881;36.722;-4.462;2023-04-15T10:08:20;100827.31;;;47.03;10.41
60725;BME280;59881;36.722;-4.462;2023-04-15T10:10:47;101041.56;;;49.03;9.49
60725;BME280;59881;36.722;-4.462;2023-04-15T10:13:21;101023.13;;;49.02;9.58
60725;BME280;59881;36.722;-4.462;2023-04-15T10:15:55;101035.59;;;49.33;9.46
60725;BME280;59881;36.722;-4.462;2023-04-15T10:18:22;101043.44;;;49.87;9.27
60725;BME280;59881;36.722;-4.462;2023-04-15T10:20:49;101037.66;;;49.96;8.93
60725;BME280;59881;36.722;-4.462;2023-04-15T10:23:15;100944.09;;;49.65;9.14
60725;BME280;59881;36.722;-4.462;2023-04-15T10:25:43;101018.59;;;50.52;8.62
60725;BME280;59881;36.722;-4.462;2023-04-15T10:28:10;101014.13;;;50.67;8.48
60725;BME280;59881;36.722;-4.462;2023-04-15T10:30:36;100933.69;;;50.52;8.77
60725;BME280;59881;36.722;-4.462;2023-04-15T10:33:02;100973.09;;;50.98;7.73
60725;BME280;59881;36.722;-4.462;2023-04-15T10:35:29;100981.56;;;50.63;8.04
60725;BME280;59881;36.722;-4.462;2023-04-15T10:37:56;101001.06;;;49.57;8.76
60725;BME280;59881;36.722;-4.462;2023-04-15T10:40:31;101007.38;;;48.69;9.41
60725;BME280;59881;36.722;-4.462;2023-04-15T10:43:01;101003.63;;;47.87;9.47
60725;BME280;59881;36.722;-4.462;2023-04-15T10:45:36;101003.31;;;44.66;11.28
60725;BME280;59881;36.722;-4.462;2023-04-15T10:48:04;101014.59;;;40.23;14.03
60725;BME280;59881;36.722;-4.462;2023-04-15T10:50:32;101009.19;;;36.60;16.54
60725;BME280;59881;36.722;-4.462;2023-04-15T10:52:58;101024.66;;;34.38;18.56
60725;BME280;59881;36.722;-4.462;2023-04-15T10:55:31;101011.94;;;32.85;20.62
60725;BME280;59881;36.722;-4.462;2023-04-15T10:57:59;101014.06;;;32.07;21.21
60725;BME280;59881;36.722;-4.462;2023-04-15T11:00:29;101011.38;;;31.53;21.36
60725;BME280;59881;36.722;-4.462;2023-04-15T11:03:05;101008.00;;;31.09;22.32
60725;BME280;59881;36.722;-4.462;2023-04-15T11:08:06;101003.28;;;30.31;22.95
60725;BME280;59881;36.722;-4.462;2023-04-15T11:12:59;100994.03;;;30.14;23.38
60725;BME280;59881;36.722;-4.462;2023-04-15T11:15:32;101000.56;;;29.87;24.42
60725;BME280;59881;36.722;-4.462;2023-04-15T11:18:01;100996.19;;;29.55;24.43
60725;BME280;59881;36.722;-4.462;2023-04-15T11:20:33;100989.38;;;29.45;24.28
60725;BME280;59881;36.722;-4.462;2023-04-15T11:22:58;100997.75;;;29.37;24.46
60725;BME280;59881;36.722;-4.462;2023-04-15T11:25:25;100993.66;;;29.28;24.24
60725;BME280;59881;36.722;-4.462;2023-04-15T11:27:52;100816.78;;;28.04;24.04
60725;BME280;59881;36.722;-4.462;2023-04-15T11:30:23;100859.00;;;28.25;24.25
60725;BME280;59881;36.722;-4.462;2023-04-15T11:32:50;100961.50;;;28.86;24.34
60725;BME280;59881;36.722;-4.462;2023-04-15T11:35:16;100968.06;;;28.72;23.98
60725;BME280;59881;36.722;-4.462;2023-04-15T11:37:46;100846.44;;;27.72;24.24
60725;BME280;59881;36.722;-4.462;2023-04-15T11:40:12;100962.56;;;28.14;24.70
60725;BME280;59881;36.722;-4.462;2023-04-15T11:42:39;100828.13;;;27.14;25.47
60725;BME280;59881;36.722;-4.462;2023-04-15T11:45:10;100955.34;;;27.68;25.61
60725;BME280;59881;36.722;-4.462;2023-04-15T11:47:37;100947.81;;;27.70;25.86
60725;BME280;59881;36.722;-4.462;2023-04-15T11:50:22;100815.22;;;26.76;26.14
60725;BME280;59881;36.722;-4.462;2023-04-15T11:52:55;100954.28;;;27.55;25.44
60725;BME280;59881;36.722;-4.462;2023-04-15T11:55:22;100910.56;;;27.25;25.86
60725;BME280;59881;36.722;-4.462;2023-04-15T11:57:49;100837.91;;;26.82;26.14
60725;BME280;59881;36.722;-4.462;2023-04-15T12:00:15;100954.91;;;27.64;25.85
60725;BME280;59881;36.722;-4.462;2023-04-15T12:02:42;100959.50;;;27.63;26.19
60725;BME280;59881;36.722;-4.462;2023-04-15T12:05:09;100972.16;;;27.36;26.05
60725;BME280;59881;36.722;-4.462;2023-04-15T12:08:05;100922.22;;;27.26;25.50
60725;BME280;59881;36.722;-4.462;2023-04-15T12:10:31;100908.63;;;26.92;25.10
60725;BME280;59881;36.722;-4.462;2023-04-15T12:12:57;100957.91;;;27.01;25.08
60725;BME280;59881;36.722;-4.462;2023-04-15T12:15:23;100642.19;;;25.00;24.95
60725;BME280;59881;36.722;-4.462;2023-04-15T12:17:48;100960.72;;;26.66;24.26
60725;BME280;59881;36.722;-4.462;2023-04-15T12:20:24;100822.88;;;25.70;24.70
60725;BME280;59881;36.722;-4.462;2023-04-15T12:22:50;100884.28;;;25.96;24.67
60725;BME280;59881;36.722;-4.462;2023-04-15T12:25:15;100944.38;;;26.46;24.73
60725;BME280;59881;36.722;-4.462;2023-04-15T12:27:50;100901.63;;;26.08;25.56
60725;BME280;59881;36.722;-4.462;2023-04-15T12:30:16;100895.09;;;25.96;26.25
60725;BME280;59881;36.722;-4.462;2023-04-15T12:32:41;100917.00;;;26.14;25.09
60725;BME280;59881;36.722;-4.462;2023-04-15T12:35:08;100948.00;;;26.25;26.28
60725;BME280;59881;36.722;-4.462;2023-04-15T12:37:33;100941.44;;;25.99;26.37
60725;BME280;59881;36.722;-4.462;2023-04-15T12:39:59;100718.69;;;25.06;26.52
60725;BME280;59881;36.722;-4.462;2023-04-15T12:42:25;100948.53;;;26.42;26.21
60725;BME280;59881;36.722;-4.462;2023-04-15T12:44:50;100904.72;;;26.12;25.47
60725;BME280;59881;36.722;-4.462;2023-04-15T12:47:16;100942.91;;;26.37;25.66
60725;BME280;59881;36.722;-4.462;2023-04-15T12:49:42;100948.50;;;26.35;25.40
60725;BME280;59881;36.722;-4.462;2023-04-15T12:52:07;100938.44;;;26.22;24.66